»·PEaware :: QXE2112 KMFR-KPDX

QXE2112 :: KMFR-KPDX

FLIGHT INFORMATION

Flight Status: Arrived
Operator:
Horizon Air
More flights by this operator :: More flights under this callsign
Pilot: Adlai G. (28854)
Aircraft: DEHAVILLAND DASH 8 400
(DH8D)
More flights by this aircraft type
Origin: KMFR Rogue Valley Intl-Medford
United States
Destination: KPDX Portland Intl
United States
More flights between these airports :: More routes between these airports
Route: +JKSN1 MOXEE PORTL TMBRS2
File this flight plan on PilotEdge
Remarks:
Altitude:
(Current/Filed)
22,000ft
Speed:
(Current/Filed)
370kts
Departed: 08-Jun-20 07:11 PM
Arrived: 08-Jun-20 07:56 PM
Distance/Time
Traveled:
193nm/0:44
Distance/Time
To Go:
Arrived

Flight Plot

Page will automatically refresh every two minutes.

Flight plan parsing failed; only flown route is shown


Map Options




Map Legend


Flown Route
Filed Route
Departure Airport
Arrival Airport
Navaid (VOR, NDB)
Fix

Horizontal Profiles

Position Reports

Time Latitude Longitude Heading Altitude Ground
Speed
08-Jun-20 18:51 42.369371 -122.873911 251 1342ft 0kts
08-Jun-20 18:52 42.369371 -122.873911 251 1342ft 0kts
08-Jun-20 18:53 42.369371 -122.873911 251 1342ft 0kts
08-Jun-20 18:54 42.369371 -122.873911 251 1342ft 0kts
08-Jun-20 18:55 42.369371 -122.873911 251 1342ft 0kts
08-Jun-20 18:56 42.369371 -122.873911 251 1342ft 0kts
08-Jun-20 18:57 42.369371 -122.873911 251 1342ft 0kts
08-Jun-20 18:58 42.369371 -122.873911 251 1342ft 0kts
08-Jun-20 18:59 42.369371 -122.873911 251 1342ft 0kts
08-Jun-20 19:00 42.369371 -122.873911 251 1342ft 0kts
08-Jun-20 19:01 42.369371 -122.873911 251 1342ft 0kts
08-Jun-20 19:02 42.369399 -122.873801 251 1342ft 2kts
08-Jun-20 19:03 42.369789 -122.872973 189 1342ft 2kts
08-Jun-20 19:04 42.369992 -122.872957 181 1342ft 0kts
08-Jun-20 19:05 42.369993 -122.872956 181 1342ft 0kts
08-Jun-20 19:06 42.369993 -122.872956 181 1342ft 0kts
08-Jun-20 19:06 42.369860 -122.872960 181 1342ft 3kts
08-Jun-20 19:08 42.368524 -122.871568 159 1342ft 14kts
08-Jun-20 19:08 42.365208 -122.869820 158 1342ft 12kts
08-Jun-20 19:09 42.363801 -122.867774 68 1342ft 7kts
08-Jun-20 19:11 42.378254 -122.875004 338 1791ft 134kts
08-Jun-20 19:11 42.408532 -122.890489 339 3927ft 144kts
08-Jun-20 19:12 42.458400 -122.906412 349 6425ft 204kts
08-Jun-20 19:13 42.519371 -122.910927 1 8848ft 228kts
08-Jun-20 19:14 42.587590 -122.903077 2 10361ft 260kts
08-Jun-20 19:15 42.660823 -122.895408 1 11935ft 267kts
08-Jun-20 19:16 42.734051 -122.888268 359 13615ft 265kts
08-Jun-20 19:17 42.805364 -122.881594 357 15358ft 252kts
08-Jun-20 19:18 42.873449 -122.875472 357 16974ft 242kts
08-Jun-20 19:19 42.941103 -122.869366 357 18214ft 246kts
08-Jun-20 19:20 43.009593 -122.862857 357 19454ft 242kts
08-Jun-20 19:21 43.075144 -122.856486 355 20765ft 234kts
08-Jun-20 19:22 43.140941 -122.850233 355 21802ft 240kts
08-Jun-20 19:23 43.210255 -122.844050 355 22278ft 264kts
08-Jun-20 19:24 43.287504 -122.836857 356 22289ft 291kts
08-Jun-20 19:25 43.370423 -122.828983 356 22288ft 307kts
08-Jun-20 19:26 43.456781 -122.820309 356 22285ft 316kts
08-Jun-20 19:27 43.544967 -122.811981 356 22284ft 320kts
08-Jun-20 19:28 43.633976 -122.803446 357 22283ft 322kts
08-Jun-20 19:29 43.723252 -122.794688 356 22283ft 323kts
08-Jun-20 19:30 43.812735 -122.785981 356 22283ft 323kts
08-Jun-20 19:31 43.902518 -122.777345 356 22282ft 323kts
08-Jun-20 19:32 43.991937 -122.768418 356 22282ft 324kts
08-Jun-20 19:33 44.081601 -122.759876 356 22281ft 324kts
08-Jun-20 19:34 44.171436 -122.750869 356 22281ft 325kts
08-Jun-20 19:35 44.261517 -122.742085 356 22280ft 325kts
08-Jun-20 19:36 44.351805 -122.733211 356 22280ft 326kts
08-Jun-20 19:37 44.442277 -122.724307 356 21644ft 329kts
08-Jun-20 19:38 44.533902 -122.715552 357 19972ft 329kts
08-Jun-20 19:39 44.624897 -122.706428 357 18472ft 328kts
08-Jun-20 19:40 44.716014 -122.697072 358 16951ft 329kts
08-Jun-20 19:41 44.807002 -122.688013 358 15209ft 326kts
08-Jun-20 19:42 44.896315 -122.679010 358 13468ft 316kts
08-Jun-20 19:43 44.981237 -122.670785 359 12025ft 300kts
08-Jun-20 19:44 45.063603 -122.662379 1 10549ft 297kts
08-Jun-20 19:45 45.145705 -122.653484 1 8886ft 291kts
08-Jun-20 19:46 45.224034 -122.647142 3 7636ft 274kts
08-Jun-20 19:47 45.291998 -122.605843 34 6554ft 261kts
08-Jun-20 19:48 45.350115 -122.550857 34 4937ft 251kts
08-Jun-20 19:49 45.404592 -122.500616 33 3551ft 213kts
08-Jun-20 19:50 45.452693 -122.452540 34 2820ft 218kts
08-Jun-20 19:51 45.505196 -122.433187 355 2461ft 192kts
08-Jun-20 19:52 45.539881 -122.478847 300 1723ft 150kts
08-Jun-20 19:53 45.557129 -122.523618 298 975ft 114kts
08-Jun-20 19:54 45.573049 -122.564811 299 362ft 117kts
08-Jun-20 19:55 45.585844 -122.597592 299 37ft 15kts
08-Jun-20 19:56 45.588073 -122.597485 300 37ft 12kts
08-Jun-20 19:57 45.590297 -122.601598 28 37ft 12kts
08-Jun-20 19:58 45.590664 -122.598627 208 37ft 3kts
08-Jun-20 19:59 45.590593 -122.598683 208 37ft 0kts
08-Jun-20 20:00 45.590593 -122.598683 208 37ft 0kts
08-Jun-20 20:01 45.590593 -122.598683 208 37ft 0kts
08-Jun-20 20:02 45.590593 -122.598683 208 37ft 0kts
08-Jun-20 20:03 45.590593 -122.598683 208 37ft 0kts
08-Jun-20 20:04 45.590593 -122.598683 208 37ft 0kts
08-Jun-20 20:05 45.590593 -122.598683 208 37ft 0kts

Navigation Log

Ident Type
Flight plan parsing failed, navigation log unavailable